createdAt,value
2023-04-10T00:06:07.348Z,9.47
2023-04-10T00:16:08.959Z,8.63
2023-04-10T00:26:10.610Z,8.65
2023-04-10T00:36:12.184Z,8.77
2023-04-10T00:46:13.872Z,8.20
2023-04-10T00:56:15.580Z,8.75
2023-04-10T01:06:32.250Z,7.83
2023-04-10T01:16:46.228Z,8.17
2023-04-10T01:27:49.742Z,8.60
2023-04-10T01:37:53.290Z,8.32
2023-04-10T01:47:56.062Z,7.63
2023-04-10T01:57:58.753Z,6.90
2023-04-10T02:08:14.735Z,6.10
2023-04-10T02:18:18.857Z,5.90
2023-04-10T02:28:20.173Z,6.20
2023-04-10T02:38:22.049Z,6.25
2023-04-10T02:48:23.496Z,6.10
2023-04-10T02:58:24.942Z,6.27
2023-04-10T03:08:26.422Z,6.93
2023-04-10T03:18:27.819Z,6.30
2023-04-10T03:28:29.731Z,6.37
2023-04-10T03:38:31.212Z,6.57
2023-04-10T03:48:33.515Z,5.28
2023-04-10T03:58:34.844Z,5.80
2023-04-10T04:08:38.629Z,5.67
2023-04-10T04:18:40.076Z,5.85
2023-04-10T04:28:41.447Z,5.80
2023-04-10T04:38:43.021Z,5.47
2023-04-10T04:48:44.451Z,5.28
2023-04-10T04:58:45.907Z,5.30
2023-04-10T05:08:47.284Z,5.27
2023-04-10T05:18:48.804Z,5.03
2023-04-10T05:28:50.455Z,5.47
2023-04-10T05:38:52.435Z,5.47
2023-04-10T05:48:54.483Z,5.33
2023-04-10T05:58:56.338Z,5.28
2023-04-10T06:08:57.801Z,5.73
2023-04-10T06:18:59.179Z,5.77
2023-04-10T06:29:00.664Z,5.68
2023-04-10T06:39:02.813Z,5.40
2023-04-10T06:49:04.215Z,5.27
2023-04-10T06:59:06.257Z,5.03
2023-04-10T07:09:08.065Z,4.68
2023-04-10T07:19:09.571Z,4.80
2023-04-10T07:29:11.864Z,5.13
2023-04-10T07:39:13.221Z,4.72
2023-04-10T07:49:14.687Z,4.60
2023-04-10T07:59:16.271Z,4.87
2023-04-10T08:09:17.705Z,4.00
2023-04-10T08:19:19.255Z,4.85
2023-04-10T08:29:20.815Z,4.50
2023-04-10T08:39:22.389Z,4.30
2023-04-10T08:49:45.828Z,4.60
2023-04-10T08:59:48.538Z,3.87
2023-04-10T09:09:50.090Z,3.60
2023-04-10T09:19:55.938Z,4.40
2023-04-10T09:29:58.406Z,3.50
2023-04-10T09:40:00.083Z,3.47
2023-04-10T09:50:01.836Z,3.67
2023-04-10T10:00:05.974Z,3.17
2023-04-10T10:10:11.813Z,3.70
2023-04-10T10:20:17.721Z,3.00
2023-04-10T10:30:29.373Z,3.90
2023-04-10T10:41:00.589Z,3.30
2023-04-10T10:51:03.578Z,3.10
2023-04-10T11:01:08.416Z,3.08
2023-04-10T11:11:17.665Z,2.80
2023-04-10T11:21:21.019Z,2.90
2023-04-10T11:31:23.235Z,3.30
2023-04-10T11:41:35.572Z,3.17
2023-04-10T11:51:38.930Z,2.70
2023-04-10T12:01:43.090Z,2.90
2023-04-10T12:12:05.305Z,2.83
2023-04-10T12:22:07.812Z,2.60
2023-04-10T12:32:09.565Z,2.90
2023-04-10T12:42:20.604Z,2.60
2023-04-10T12:52:22.975Z,2.40
2023-04-10T13:02:24.852Z,2.73
2023-04-10T13:12:27.175Z,2.80
2023-04-10T13:22:28.693Z,2.55
2023-04-10T13:32:30.132Z,3.27
2023-04-10T13:42:31.634Z,2.50
2023-04-10T13:52:33.027Z,2.60
2023-04-10T14:02:34.669Z,2.43
2023-04-10T14:12:37.565Z,2.37
2023-04-10T14:22:39.630Z,2.50
2023-04-10T14:32:41.414Z,2.40
2023-04-10T14:42:43.247Z,2.43
2023-04-10T14:52:44.764Z,1.70
2023-04-10T15:02:46.721Z,1.73
2023-04-10T15:12:49.667Z,2.30
2023-04-10T15:22:51.361Z,2.10
2023-04-10T15:32:52.821Z,2.15
2023-04-10T15:42:54.197Z,2.77
2023-04-10T15:52:55.703Z,2.20
2023-04-10T16:02:57.199Z,2.40
2023-04-10T16:13:04.116Z,2.37
2023-04-10T16:23:05.585Z,2.30
2023-04-10T16:33:07.216Z,2.40
2023-04-10T16:43:08.718Z,2.20
2023-04-10T16:53:10.206Z,2.40
2023-04-10T17:03:11.675Z,2.67
2023-04-10T17:13:13.267Z,2.70
2023-04-10T17:23:14.733Z,2.80
2023-04-10T17:33:16.296Z,2.70
2023-04-10T17:43:17.761Z,2.85
2023-04-10T17:53:19.566Z,8.30
2023-04-10T18:03:20.977Z,3.40
2023-04-10T18:13:22.344Z,4.03
2023-04-10T18:23:25.751Z,3.42
2023-04-10T18:33:27.144Z,4.90
2023-04-10T18:43:28.668Z,5.20
2023-04-10T18:53:30.229Z,4.95
2023-04-10T19:03:32.009Z,4.27
2023-04-10T19:13:33.779Z,2.90
2023-04-10T19:23:35.262Z,1.52
2023-04-10T19:33:36.694Z,2.27
2023-04-10T19:43:38.153Z,1.97
2023-04-10T19:53:40.391Z,2.20
2023-04-10T20:03:42.216Z,2.22
2023-04-10T20:13:44.152Z,1.80
2023-04-10T20:23:45.655Z,1.53
2023-04-10T20:33:47.102Z,2.08
2023-04-10T20:43:48.454Z,2.20
2023-04-10T20:53:49.939Z,3.60
2023-04-10T21:03:51.440Z,4.10
2023-04-10T21:13:53.413Z,1.53
2023-04-10T21:23:55.532Z,1.60
2023-04-10T21:33:56.896Z,3.00
2023-04-10T21:44:00.226Z,6.10
2023-04-10T21:54:02.271Z,2.00
2023-04-10T22:04:03.957Z,1.50
2023-04-10T22:14:15.735Z,1.20
2023-04-10T22:24:18.946Z,0.87
2023-04-10T22:34:20.315Z,1.50
2023-04-10T22:44:21.810Z,1.27
2023-04-10T22:54:23.344Z,1.00
2023-04-10T23:04:24.840Z,1.13
2023-04-10T23:14:26.352Z,1.70
2023-04-10T23:24:27.765Z,1.67
2023-04-10T23:34:29.220Z,1.50
2023-04-10T23:44:31.025Z,2.00
2023-04-10T23:54:32.519Z,1.52
